createdAt,value
2022-10-19T00:02:04.213Z,100.00
2022-10-19T00:04:30.983Z,100.00
2022-10-19T00:06:57.615Z,100.00
2022-10-19T00:09:24.120Z,100.00
2022-10-19T00:11:50.884Z,100.00
2022-10-19T00:14:21.009Z,100.00
2022-10-19T00:16:50.418Z,100.00
2022-10-19T00:19:25.689Z,100.00
2022-10-19T00:21:52.581Z,100.00
2022-10-19T00:24:19.714Z,100.00
2022-10-19T00:26:47.105Z,100.00
2022-10-19T00:29:14.870Z,100.00
2022-10-19T00:31:42.158Z,100.00
2022-10-19T00:34:08.965Z,100.00
2022-10-19T00:36:37.609Z,100.00
2022-10-19T00:39:06.307Z,100.00
2022-10-19T00:41:35.496Z,100.00
2022-10-19T00:44:06.261Z,100.00
2022-10-19T00:46:36.746Z,100.00
2022-10-19T00:49:21.940Z,100.00
2022-10-19T00:51:51.909Z,100.00
2022-10-19T00:54:19.411Z,100.00
2022-10-19T00:56:47.817Z,100.00
2022-10-19T00:59:16.768Z,100.00
2022-10-19T01:01:45.300Z,100.00
2022-10-19T01:04:13.450Z,100.00
2022-10-19T01:06:41.379Z,100.00
2022-10-19T01:09:08.997Z,100.00
2022-10-19T01:12:01.655Z,100.00
2022-10-19T01:14:51.728Z,100.00
2022-10-19T01:17:42.993Z,100.00
2022-10-19T01:20:33.961Z,100.00
2022-10-19T01:23:06.699Z,100.00
2022-10-19T01:25:55.303Z,100.00
2022-10-19T01:28:36.709Z,100.00
2022-10-19T01:31:29.842Z,100.00
2022-10-19T01:34:24.327Z,100.00
2022-10-19T01:36:56.667Z,100.00
2022-10-19T01:39:49.937Z,100.00
2022-10-19T01:42:49.549Z,100.00
2022-10-19T01:45:27.201Z,100.00
2022-10-19T01:48:01.751Z,100.00
2022-10-19T01:50:38.284Z,100.00
2022-10-19T01:53:08.398Z,100.00
2022-10-19T01:55:37.927Z,100.00
2022-10-19T01:58:09.549Z,100.00
2022-10-19T02:00:41.096Z,100.00
2022-10-19T02:03:10.043Z,100.00
2022-10-19T02:05:38.709Z,100.00
2022-10-19T02:08:12.167Z,100.00
2022-10-19T02:10:41.166Z,100.00
2022-10-19T02:13:08.256Z,100.00
2022-10-19T02:15:38.391Z,100.00
2022-10-19T02:18:07.105Z,100.00
2022-10-19T02:20:35.507Z,100.00
2022-10-19T02:23:04.868Z,100.00
2022-10-19T02:25:32.544Z,100.00
2022-10-19T02:28:00.950Z,100.00
2022-10-19T02:30:27.824Z,100.00
2022-10-19T02:32:54.733Z,100.00
2022-10-19T02:35:22.557Z,100.00
2022-10-19T02:37:49.602Z,100.00
2022-10-19T02:40:16.324Z,100.00
2022-10-19T02:42:50.329Z,100.00
2022-10-19T02:45:26.137Z,100.00
2022-10-19T02:47:58.224Z,100.00
2022-10-19T02:50:25.098Z,100.00
2022-10-19T02:52:51.812Z,100.00
2022-10-19T02:55:18.549Z,100.00
2022-10-19T02:57:45.378Z,100.00
2022-10-19T03:00:12.324Z,100.00
2022-10-19T03:02:38.843Z,100.00
2022-10-19T03:05:05.654Z,100.00
2022-10-19T03:07:32.681Z,100.00
2022-10-19T03:09:59.426Z,100.00
2022-10-19T03:12:26.046Z,100.00
2022-10-19T03:14:52.756Z,100.00
2022-10-19T03:17:19.368Z,100.00
2022-10-19T03:19:46.124Z,100.00
2022-10-19T03:22:14.894Z,100.00
2022-10-19T03:24:41.560Z,100.00
2022-10-19T03:27:08.292Z,100.00
2022-10-19T03:29:34.820Z,100.00
2022-10-19T03:32:01.450Z,100.00
2022-10-19T03:34:28.055Z,100.00
2022-10-19T03:36:54.625Z,100.00
2022-10-19T03:39:21.412Z,100.00
2022-10-19T03:41:47.958Z,100.00
2022-10-19T03:44:14.495Z,100.00
2022-10-19T03:46:41.068Z,100.00
2022-10-19T03:49:09.948Z,100.00
2022-10-19T03:51:36.560Z,100.00
2022-10-19T03:54:08.556Z,100.00
2022-10-19T03:56:35.989Z,100.00
2022-10-19T03:59:04.277Z,100.00
2022-10-19T04:01:40.565Z,100.00
2022-10-19T04:04:13.976Z,100.00
2022-10-19T04:06:42.879Z,100.00
2022-10-19T04:09:13.044Z,100.00
2022-10-19T04:11:39.646Z,100.00
2022-10-19T04:14:06.411Z,100.00
2022-10-19T04:16:33.518Z,100.00
2022-10-19T04:19:00.553Z,100.00
2022-10-19T04:21:32.698Z,100.00
2022-10-19T04:24:05.969Z,100.00
2022-10-19T04:26:34.140Z,100.00
2022-10-19T04:29:01.761Z,100.00
2022-10-19T04:31:28.977Z,100.00
2022-10-19T04:33:56.614Z,100.00
2022-10-19T04:36:23.892Z,100.00
2022-10-19T04:38:50.496Z,100.00
2022-10-19T04:41:19.175Z,100.00
2022-10-19T04:43:46.510Z,100.00
2022-10-19T04:46:18.361Z,100.00
2022-10-19T04:48:46.392Z,100.00
2022-10-19T04:51:14.345Z,100.00
2022-10-19T04:53:42.349Z,100.00
2022-10-19T04:56:12.870Z,100.00
2022-10-19T04:58:39.712Z,100.00
2022-10-19T05:01:15.349Z,100.00
2022-10-19T05:03:42.035Z,100.00
2022-10-19T05:06:09.567Z,100.00
2022-10-19T05:08:37.096Z,100.00
2022-10-19T05:11:06.618Z,100.00
2022-10-19T05:13:33.591Z,100.00
2022-10-19T05:16:01.804Z,100.00
2022-10-19T05:18:28.831Z,100.00
2022-10-19T05:21:10.094Z,100.00
2022-10-19T05:23:37.223Z,100.00
2022-10-19T05:26:07.153Z,100.00
2022-10-19T05:28:34.170Z,100.00
2022-10-19T05:31:12.242Z,100.00
2022-10-19T05:33:39.025Z,100.00
2022-10-19T05:36:17.491Z,100.00
2022-10-19T05:38:45.802Z,100.00
2022-10-19T05:41:12.653Z,100.00
2022-10-19T05:43:40.549Z,100.00
2022-10-19T05:46:09.669Z,100.00
2022-10-19T05:48:36.616Z,100.00
2022-10-19T05:51:07.812Z,100.00
2022-10-19T05:53:35.002Z,100.00
2022-10-19T05:56:03.831Z,100.00
2022-10-19T05:58:30.390Z,100.00
2022-10-19T06:00:59.180Z,100.00
2022-10-19T06:03:26.402Z,100.00
2022-10-19T06:05:54.262Z,100.00
2022-10-19T06:08:22.597Z,100.00
2022-10-19T06:10:50.374Z,100.00
2022-10-19T06:13:19.148Z,100.00
2022-10-19T06:15:50.676Z,100.00
2022-10-19T06:18:17.691Z,100.00
2022-10-19T06:20:44.333Z,100.00
2022-10-19T06:23:10.933Z,100.00
2022-10-19T06:25:38.140Z,100.00
2022-10-19T06:28:04.897Z,100.00
2022-10-19T06:30:31.408Z,100.00
2022-10-19T06:32:59.008Z,100.00
2022-10-19T06:35:25.608Z,100.00
2022-10-19T06:37:52.365Z,100.00
2022-10-19T06:40:19.053Z,100.00
2022-10-19T06:42:45.758Z,100.00
2022-10-19T06:45:12.493Z,100.00
2022-10-19T06:47:39.390Z,100.00
2022-10-19T06:50:07.093Z,100.00
2022-10-19T06:52:37.405Z,100.00
2022-10-19T06:55:04.949Z,100.00
2022-10-19T06:57:32.087Z,100.00
2022-10-19T06:59:58.903Z,100.00
2022-10-19T07:02:25.641Z,100.00
2022-10-19T07:04:52.265Z,100.00
2022-10-19T07:07:18.845Z,100.00
2022-10-19T07:09:45.405Z,100.00
2022-10-19T07:12:12.019Z,100.00
2022-10-19T07:14:39.772Z,100.00
2022-10-19T07:17:07.877Z,100.00
2022-10-19T07:19:34.936Z,100.00
2022-10-19T07:22:01.795Z,100.00
2022-10-19T07:24:28.359Z,100.00
2022-10-19T07:26:55.723Z,100.00
2022-10-19T07:29:22.505Z,100.00
2022-10-19T07:31:49.146Z,100.00
2022-10-19T07:34:16.351Z,100.00
2022-10-19T07:36:46.060Z,100.00
2022-10-19T07:39:13.249Z,100.00
2022-10-19T07:41:39.965Z,100.00
2022-10-19T07:44:07.469Z,100.00
2022-10-19T07:46:38.735Z,100.00
2022-10-19T07:49:12.774Z,100.00
2022-10-19T07:51:40.230Z,100.00
2022-10-19T07:54:06.872Z,100.00
2022-10-19T07:56:33.695Z,100.00
2022-10-19T07:59:00.701Z,100.00
2022-10-19T08:01:30.300Z,100.00
2022-10-19T08:06:45.143Z,100.00
2022-10-19T08:09:22.973Z,100.00
2022-10-19T08:11:58.647Z,100.00
2022-10-19T08:14:25.973Z,100.00
2022-10-19T08:16:52.489Z,100.00
2022-10-19T08:19:19.077Z,100.00
2022-10-19T08:21:46.940Z,100.00
2022-10-19T08:24:15.629Z,100.00
2022-10-19T08:26:42.696Z,100.00
2022-10-19T08:29:14.732Z,100.00
2022-10-19T08:31:43.017Z,100.00
2022-10-19T08:34:10.006Z,100.00
2022-10-19T08:36:37.219Z,100.00
2022-10-19T08:39:05.815Z,100.00
2022-10-19T08:41:41.505Z,100.00
2022-10-19T08:44:29.169Z,100.00
2022-10-19T08:47:06.038Z,100.00
2022-10-19T08:49:34.349Z,100.00
2022-10-19T08:52:05.866Z,100.00
2022-10-19T08:54:56.214Z,100.00
2022-10-19T08:57:42.174Z,100.00
2022-10-19T09:00:21.117Z,100.00
2022-10-19T09:03:05.813Z,100.00
2022-10-19T09:05:44.039Z,100.00
2022-10-19T09:08:17.451Z,100.00
2022-10-19T09:10:48.809Z,100.00
2022-10-19T09:13:41.456Z,100.00
2022-10-19T09:16:16.084Z,100.00
2022-10-19T09:18:43.658Z,100.00
2022-10-19T09:21:19.555Z,100.00
2022-10-19T09:24:05.956Z,100.00
2022-10-19T09:26:37.987Z,100.00
2022-10-19T09:29:28.656Z,100.00
2022-10-19T09:32:00.345Z,100.00
2022-10-19T09:34:50.052Z,100.00
2022-10-19T09:37:24.881Z,100.00
2022-10-19T09:39:55.189Z,100.00
2022-10-19T09:42:37.111Z,98.44
2022-10-19T09:45:29.724Z,98.48
2022-10-19T09:48:00.431Z,97.83
2022-10-19T09:50:31.544Z,98.63
2022-10-19T09:53:05.633Z,98.66
2022-10-19T09:55:42.308Z,99.76
2022-10-19T09:58:14.735Z,99.97
2022-10-19T10:00:50.831Z,98.38
2022-10-19T10:03:23.378Z,97.62
2022-10-19T10:05:50.474Z,96.33
2022-10-19T10:08:21.458Z,95.51
2022-10-19T10:11:00.679Z,97.26
2022-10-19T10:13:28.152Z,96.13
2022-10-19T10:16:02.148Z,95.46
2022-10-19T10:18:30.497Z,96.62
2022-10-19T10:21:00.601Z,95.92
2022-10-19T10:23:32.237Z,96.73
2022-10-19T10:26:00.121Z,96.74
2022-10-19T10:28:29.284Z,95.57
2022-10-19T10:31:01.908Z,95.43
2022-10-19T10:33:44.226Z,96.23
2022-10-19T10:36:12.326Z,96.39
2022-10-19T10:38:47.284Z,95.82
2022-10-19T10:41:23.112Z,94.92
2022-10-19T10:43:56.757Z,94.47
2022-10-19T10:46:28.949Z,94.71
2022-10-19T10:49:01.939Z,93.58
2022-10-19T10:51:37.382Z,92.74
2022-10-19T10:54:24.658Z,92.12
2022-10-19T10:57:13.172Z,91.09
2022-10-19T11:00:12.473Z,91.07
2022-10-19T11:03:01.275Z,92.58
2022-10-19T11:05:36.584Z,90.51
2022-10-19T11:08:12.067Z,91.37
2022-10-19T11:11:06.314Z,92.72
2022-10-19T11:13:45.107Z,93.28
2022-10-19T11:16:14.960Z,93.07
2022-10-19T11:18:46.161Z,93.65
2022-10-19T11:21:20.320Z,93.37
2022-10-19T11:24:13.393Z,93.61
2022-10-19T11:26:49.223Z,91.52
2022-10-19T11:29:18.774Z,90.17
2022-10-19T11:31:51.529Z,91.09
2022-10-19T11:34:40.198Z,90.67
2022-10-19T11:37:50.134Z,89.52
2022-10-19T11:41:13.093Z,89.62
2022-10-19T11:44:03.606Z,91.10
2022-10-19T11:46:58.025Z,91.03
2022-10-19T11:49:43.264Z,92.40
2022-10-19T11:52:46.318Z,91.82
2022-10-19T11:55:47.717Z,91.54
2022-10-19T11:58:35.277Z,91.11
2022-10-19T12:01:11.124Z,89.00
2022-10-19T12:04:03.441Z,88.69
2022-10-19T12:06:44.904Z,89.61
2022-10-19T12:09:34.190Z,90.59
2022-10-19T12:12:24.911Z,92.04
2022-10-19T12:14:54.134Z,92.05
2022-10-19T12:17:27.272Z,91.73
2022-10-19T12:19:58.890Z,90.06
2022-10-19T12:22:29.672Z,90.02
2022-10-19T12:25:00.649Z,89.22
2022-10-19T12:27:34.832Z,90.16
2022-10-19T12:30:08.422Z,90.56
2022-10-19T12:32:53.537Z,90.03
2022-10-19T12:35:47.248Z,91.00
2022-10-19T12:38:26.046Z,91.58
2022-10-19T12:40:56.713Z,91.47
2022-10-19T12:44:01.890Z,92.71
2022-10-19T12:46:38.576Z,93.82
2022-10-19T12:49:26.667Z,94.17
2022-10-19T12:51:55.259Z,93.05
2022-10-19T12:54:33.956Z,93.64
2022-10-19T12:57:02.181Z,94.49
2022-10-19T12:59:34.099Z,94.42
2022-10-19T13:02:02.698Z,94.55
2022-10-19T13:04:32.044Z,93.81
2022-10-19T13:07:01.496Z,94.80
2022-10-19T13:09:35.087Z,95.50
2022-10-19T13:12:16.307Z,95.58
2022-10-19T13:14:53.612Z,95.93
2022-10-19T13:17:48.422Z,95.69
2022-10-19T13:20:14.974Z,96.35
2022-10-19T13:23:08.817Z,95.42
2022-10-19T13:25:39.466Z,96.00
2022-10-19T13:28:17.897Z,95.14
2022-10-19T13:30:44.322Z,95.03
2022-10-19T13:33:24.627Z,93.80
2022-10-19T13:36:00.612Z,94.17
2022-10-19T13:38:55.719Z,95.04
2022-10-19T13:41:27.275Z,95.37
2022-10-19T13:44:13.888Z,95.99
2022-10-19T13:47:02.292Z,96.43
2022-10-19T13:49:47.595Z,95.94
2022-10-19T13:52:42.089Z,95.55
2022-10-19T13:55:22.052Z,95.79
2022-10-19T13:58:00.448Z,94.75
2022-10-19T14:00:38.171Z,95.16
2022-10-19T14:03:23.963Z,95.94
2022-10-19T14:06:27.551Z,95.51
2022-10-19T14:09:22.593Z,95.53
2022-10-19T14:11:53.234Z,95.03
2022-10-19T14:14:24.676Z,93.77
2022-10-19T14:17:03.997Z,93.33
2022-10-19T14:19:34.030Z,93.36
2022-10-19T14:22:16.907Z,93.99
2022-10-19T14:24:43.546Z,94.31
2022-10-19T14:27:18.564Z,95.21
2022-10-19T14:29:50.801Z,95.77
2022-10-19T14:32:22.442Z,95.50
2022-10-19T14:34:49.740Z,95.75
2022-10-19T14:37:22.415Z,96.36
2022-10-19T14:40:08.838Z,96.70
2022-10-19T14:42:41.766Z,97.33
2022-10-19T14:45:19.976Z,97.92
2022-10-19T14:48:07.558Z,98.03
2022-10-19T14:50:34.082Z,98.08
2022-10-19T14:53:39.812Z,97.65
2022-10-19T14:56:12.388Z,95.99
2022-10-19T14:58:55.674Z,95.39
2022-10-19T15:01:22.582Z,95.19
2022-10-19T15:03:50.246Z,95.13
2022-10-19T15:06:21.539Z,94.50
2022-10-19T15:08:55.370Z,96.11
2022-10-19T15:11:33.242Z,95.50
2022-10-19T15:14:14.136Z,94.69
2022-10-19T15:16:51.263Z,95.04
2022-10-19T15:19:39.199Z,94.68
2022-10-19T15:22:08.739Z,95.26
2022-10-19T15:24:36.305Z,95.77
2022-10-19T15:27:11.420Z,96.67
2022-10-19T15:29:38.221Z,96.66
2022-10-19T15:32:15.996Z,96.69
2022-10-19T15:34:44.367Z,97.46
2022-10-19T15:37:19.009Z,98.10
2022-10-19T15:39:45.868Z,98.10
2022-10-19T15:42:34.867Z,98.40
2022-10-19T15:45:02.483Z,97.80
2022-10-19T15:47:29.138Z,97.92
2022-10-19T15:50:31.026Z,98.24
2022-10-19T15:52:59.443Z,98.77
2022-10-19T15:55:26.044Z,98.98
2022-10-19T15:57:59.137Z,99.74
2022-10-19T16:00:26.222Z,99.99
2022-10-19T16:02:52.840Z,100.00
2022-10-19T16:05:19.765Z,100.00
2022-10-19T16:07:47.284Z,100.00
2022-10-19T16:10:19.737Z,100.00
2022-10-19T16:12:46.397Z,100.00
2022-10-19T16:15:17.462Z,100.00
2022-10-19T16:17:47.285Z,100.00
2022-10-19T16:20:14.171Z,100.00
2022-10-19T16:22:41.138Z,100.00
2022-10-19T16:25:07.706Z,100.00
2022-10-19T16:27:34.521Z,100.00
2022-10-19T16:30:01.410Z,100.00
2022-10-19T16:32:29.268Z,100.00
2022-10-19T16:34:55.786Z,100.00
2022-10-19T16:37:22.359Z,100.00
2022-10-19T16:39:48.899Z,100.00
2022-10-19T16:42:15.487Z,100.00
2022-10-19T16:44:42.014Z,100.00
2022-10-19T16:47:08.516Z,100.00
2022-10-19T16:49:35.039Z,100.00
2022-10-19T16:52:01.747Z,100.00
2022-10-19T16:54:30.087Z,100.00
2022-10-19T16:56:56.660Z,100.00
2022-10-19T16:59:23.197Z,100.00
2022-10-19T17:01:49.958Z,100.00
2022-10-19T17:04:18.006Z,100.00
2022-10-19T17:06:44.978Z,100.00
2022-10-19T17:09:40.216Z,100.00
2022-10-19T17:11:58.022Z,100.00
2022-10-19T17:14:24.555Z,100.00
2022-10-19T17:16:51.071Z,100.00
2022-10-19T17:19:17.520Z,100.00
2022-10-19T17:21:44.253Z,100.00
2022-10-19T17:24:21.052Z,100.00
2022-10-19T17:26:49.591Z,100.00
2022-10-19T17:29:16.164Z,100.00
2022-10-19T17:31:42.878Z,100.00
2022-10-19T17:34:10.279Z,100.00
2022-10-19T17:39:11.018Z,100.00
2022-10-19T17:41:37.621Z,100.00
2022-10-19T17:44:05.253Z,100.00
2022-10-19T17:46:34.392Z,100.00
2022-10-19T17:49:01.283Z,100.00
2022-10-19T17:51:30.246Z,100.00
2022-10-19T17:54:08.022Z,100.00
2022-10-19T17:56:35.925Z,100.00
2022-10-19T17:59:03.245Z,100.00
2022-10-19T18:01:31.092Z,100.00
2022-10-19T18:03:57.852Z,100.00
2022-10-19T18:06:25.818Z,100.00
2022-10-19T18:08:55.647Z,100.00
2022-10-19T18:11:36.001Z,100.00
2022-10-19T18:14:03.654Z,100.00
2022-10-19T18:16:36.070Z,100.00
2022-10-19T18:19:05.050Z,100.00
2022-10-19T18:21:35.453Z,100.00
2022-10-19T18:24:02.788Z,100.00
2022-10-19T18:26:32.421Z,100.00
2022-10-19T18:29:01.264Z,100.00
2022-10-19T18:31:30.736Z,100.00
2022-10-19T18:34:00.454Z,100.00
2022-10-19T18:36:27.397Z,100.00
2022-10-19T18:38:57.491Z,100.00
2022-10-19T18:41:30.407Z,100.00
2022-10-19T18:44:05.314Z,100.00
2022-10-19T18:46:33.683Z,100.00
2022-10-19T18:49:03.193Z,100.00
2022-10-19T18:51:30.759Z,100.00
2022-10-19T18:53:57.402Z,100.00
2022-10-19T18:56:24.605Z,100.00
2022-10-19T18:59:05.332Z,100.00
2022-10-19T19:01:32.854Z,100.00
2022-10-19T19:04:06.577Z,100.00
2022-10-19T19:06:38.658Z,100.00
2022-10-19T19:09:17.463Z,100.00
2022-10-19T19:11:44.102Z,100.00
2022-10-19T19:14:17.143Z,100.00
2022-10-19T19:16:57.298Z,100.00
2022-10-19T19:19:25.768Z,100.00
2022-10-19T19:21:52.590Z,100.00
2022-10-19T19:24:21.974Z,100.00
2022-10-19T19:26:51.421Z,100.00
2022-10-19T19:29:19.297Z,100.00
2022-10-19T19:31:47.119Z,100.00
2022-10-19T19:34:13.737Z,100.00
2022-10-19T19:36:46.659Z,100.00
2022-10-19T19:39:15.574Z,100.00
2022-10-19T19:41:42.042Z,100.00
2022-10-19T19:44:08.570Z,100.00
2022-10-19T19:46:35.897Z,100.00
2022-10-19T19:49:03.960Z,100.00
2022-10-19T19:51:31.564Z,100.00
2022-10-19T19:53:58.540Z,100.00
2022-10-19T19:56:25.510Z,100.00
2022-10-19T19:58:57.186Z,100.00
2022-10-19T20:01:24.315Z,100.00
2022-10-19T20:03:50.959Z,100.00
2022-10-19T20:06:22.121Z,100.00
2022-10-19T20:08:51.860Z,100.00
2022-10-19T20:11:18.443Z,100.00
2022-10-19T20:13:45.702Z,100.00
2022-10-19T20:16:15.621Z,100.00
2022-10-19T20:18:44.972Z,100.00
2022-10-19T20:21:12.797Z,100.00
2022-10-19T20:23:39.369Z,100.00
2022-10-19T20:26:06.126Z,100.00
2022-10-19T20:28:34.370Z,100.00
2022-10-19T20:31:06.560Z,100.00
2022-10-19T20:33:34.983Z,100.00
2022-10-19T20:36:06.457Z,100.00
2022-10-19T20:38:34.540Z,100.00
2022-10-19T20:41:08.017Z,100.00
2022-10-19T20:43:38.372Z,100.00
2022-10-19T20:46:07.221Z,100.00
2022-10-19T20:48:34.001Z,100.00
2022-10-19T20:51:12.766Z,100.00
2022-10-19T20:53:39.917Z,100.00
2022-10-19T20:56:12.904Z,100.00
2022-10-19T20:58:42.441Z,100.00
2022-10-19T21:01:18.018Z,100.00
2022-10-19T21:03:55.761Z,100.00
2022-10-19T21:06:24.964Z,100.00
2022-10-19T21:08:52.279Z,100.00
2022-10-19T21:11:25.020Z,100.00
2022-10-19T21:13:56.449Z,100.00
2022-10-19T21:16:24.530Z,100.00
2022-10-19T21:18:51.075Z,100.00
2022-10-19T21:21:27.263Z,100.00
2022-10-19T21:24:00.167Z,100.00
2022-10-19T21:26:28.141Z,100.00
2022-10-19T21:28:55.470Z,100.00
2022-10-19T21:31:23.591Z,100.00
2022-10-19T21:33:51.729Z,100.00
2022-10-19T21:36:19.578Z,100.00
2022-10-19T21:38:46.284Z,100.00
2022-10-19T21:41:15.738Z,100.00
2022-10-19T21:43:42.864Z,100.00
2022-10-19T21:46:13.478Z,100.00
2022-10-19T21:48:40.132Z,100.00
2022-10-19T21:51:34.705Z,100.00
2022-10-19T21:54:02.727Z,100.00
2022-10-19T21:56:29.460Z,100.00
2022-10-19T21:58:56.644Z,100.00
2022-10-19T22:01:26.603Z,100.00
2022-10-19T22:04:01.349Z,100.00
2022-10-19T22:06:29.369Z,100.00
2022-10-19T22:08:56.280Z,100.00
2022-10-19T22:11:23.624Z,100.00
2022-10-19T22:13:54.789Z,100.00
2022-10-19T22:16:21.842Z,100.00
2022-10-19T22:18:48.920Z,100.00
2022-10-19T22:21:23.021Z,100.00
2022-10-19T22:23:55.038Z,100.00
2022-10-19T22:26:27.418Z,100.00
2022-10-19T22:28:56.904Z,100.00
2022-10-19T22:31:25.403Z,100.00
2022-10-19T22:33:51.972Z,100.00
2022-10-19T22:36:19.088Z,100.00
2022-10-19T22:38:46.102Z,100.00
2022-10-19T22:41:13.154Z,100.00
2022-10-19T22:43:39.638Z,100.00
2022-10-19T22:46:06.227Z,100.00
2022-10-19T22:48:32.842Z,100.00
2022-10-19T22:50:59.455Z,100.00
2022-10-19T22:53:25.955Z,100.00
2022-10-19T22:55:52.579Z,100.00
2022-10-19T22:58:20.036Z,100.00
2022-10-19T23:00:57.000Z,100.00
2022-10-19T23:03:23.550Z,100.00
2022-10-19T23:05:50.067Z,100.00
2022-10-19T23:08:16.582Z,100.00
2022-10-19T23:10:43.059Z,100.00
2022-10-19T23:13:11.081Z,100.00
2022-10-19T23:15:41.658Z,100.00
2022-10-19T23:18:10.624Z,100.00
2022-10-19T23:20:37.167Z,100.00
2022-10-19T23:23:03.678Z,100.00
2022-10-19T23:28:01.635Z,100.00
2022-10-19T23:30:28.131Z,100.00
2022-10-19T23:32:54.638Z,100.00
2022-10-19T23:35:21.250Z,100.00
2022-10-19T23:37:47.941Z,100.00
2022-10-19T23:40:14.463Z,100.00
2022-10-19T23:42:41.341Z,100.00
2022-10-19T23:45:08.157Z,100.00
2022-10-19T23:47:35.012Z,100.00
2022-10-19T23:50:01.766Z,100.00
2022-10-19T23:52:28.301Z,100.00
2022-10-19T23:54:54.812Z,100.00
2022-10-19T23:57:21.338Z,100.00
2022-10-19T23:59:47.870Z,100.00
